Time;durP1;ratioP1;P1;durP2;ratioP2;P2;SDS_P1;SDS_P2;PMS_P1;PMS_P2;Temp;Humidity;BMP_temperature;BMP_pressure;BME280_temperature;BME280_humidity;BME280_pressure;Samples;Min_cycle;Max_cycle;Signal;HPM_P1;HPM_P2
2022/04/17 00:00:23;;;;;;;5.80;3.55;;;8.00;50.60;;;;;;4953384;29;20043;-79
2022/04/17 00:02:48;;;;;;;5.28;3.15;;;8.00;50.60;;;;;;4927316;29;20048;-80
2022/04/17 00:05:14;;;;;;;4.47;3.00;;;8.00;50.90;;;;;;4941126;29;20083;-79
2022/04/17 00:07:40;;;;;;;5.60;3.20;;;8.10;51.10;;;;;;4927334;29;20048;-80
2022/04/17 00:10:08;;;;;;;6.43;3.42;;;8.10;51.10;;;;;;4920740;29;20059;-79
2022/04/17 00:12:34;;;;;;;4.65;3.10;;;8.10;51.20;;;;;;4939451;29;20408;-80
2022/04/17 00:15:02;;;;;;;4.38;2.83;;;8.10;51.20;;;;;;4949907;29;20051;-79
2022/04/17 00:17:28;;;;;;;4.93;2.92;;;8.10;51.30;;;;;;4949112;29;20058;-80
2022/04/17 00:19:54;;;;;;;4.53;3.10;;;8.10;51.30;;;;;;4943813;29;20059;-79
2022/04/17 00:22:20;;;;;;;4.13;3.00;;;8.10;51.20;;;;;;4921299;29;20452;-80
2022/04/17 00:24:45;;;;;;;5.00;3.58;;;8.20;51.30;;;;;;4943853;29;20079;-80
2022/04/17 00:27:11;;;;;;;4.32;2.58;;;8.20;51.40;;;;;;4925683;29;20036;-80
2022/04/17 00:29:37;;;;;;;6.70;3.38;;;8.20;51.40;;;;;;4920453;29;20044;-79
2022/04/17 00:32:03;;;;;;;8.00;3.78;;;8.30;51.50;;;;;;4937889;29;20043;-79
2022/04/17 00:34:30;;;;;;;5.10;3.22;;;8.30;51.50;;;;;;4923219;29;20380;-79
2022/04/17 00:36:59;;;;;;;6.80;4.30;;;8.20;51.50;;;;;;4951552;28;20589;-79
2022/04/17 00:39:25;;;;;;;5.60;3.55;;;8.30;51.40;;;;;;4955896;29;20047;-79
2022/04/17 00:41:51;;;;;;;4.75;3.28;;;8.30;51.50;;;;;;4947464;29;20055;-79
2022/04/17 00:44:17;;;;;;;4.68;3.20;;;8.50;51.60;;;;;;4937079;29;20440;-79
2022/04/17 00:46:42;;;;;;;5.07;3.35;;;8.30;51.60;;;;;;4939878;29;20068;-79
2022/04/17 00:49:08;;;;;;;4.97;3.22;;;8.30;51.60;;;;;;4946968;29;20456;-80
2022/04/17 00:51:37;;;;;;;3.88;2.80;;;8.30;51.60;;;;;;4950619;29;20051;-79
2022/04/17 00:54:04;;;;;;;5.65;3.20;;;8.30;51.70;;;;;;4953927;29;20483;-79
2022/04/17 00:56:31;;;;;;;4.45;3.10;;;8.30;51.70;;;;;;4950985;29;20044;-79
2022/04/17 00:58:57;;;;;;;5.93;3.60;;;8.30;51.70;;;;;;4940385;29;20432;-79
2022/04/17 01:01:23;;;;;;;5.13;3.40;;;8.20;51.70;;;;;;4947965;29;20063;-79
2022/04/17 01:03:52;;;;;;;6.20;3.30;;;8.20;51.70;;;;;;4949708;29;20051;-79
2022/04/17 01:06:18;;;;;;;4.80;3.20;;;8.20;51.80;;;;;;4951916;29;20059;-79
2022/04/17 01:08:44;;;;;;;5.15;3.33;;;8.20;51.70;;;;;;4948200;29;20054;-79
2022/04/17 01:11:11;;;;;;;5.40;3.60;;;8.20;51.70;;;;;;4936411;29;20052;-79
2022/04/17 01:13:41;;;;;;;5.22;3.40;;;8.20;51.70;;;;;;4945407;29;20047;-79
2022/04/17 01:16:07;;;;;;;7.10;4.05;;;8.20;51.80;;;;;;4953958;29;20047;-79
2022/04/17 01:18:55;;;;;;;6.00;4.38;;;8.20;51.60;;;;;;4937099;29;20103;-79
2022/04/17 01:21:25;;;;;;;5.93;3.97;;;8.20;51.40;;;;;;4953193;29;20093;-78
2022/04/17 01:29:20;;;;;;;4.60;3.45;;;8.10;51.70;;;;;;4936424;29;20048;-79
2022/04/17 01:31:46;;;;;;;5.97;3.80;;;8.10;51.80;;;;;;4945393;29;20044;-79
2022/04/17 01:34:16;;;;;;;7.05;4.65;;;8.00;51.80;;;;;;4921419;29;20067;-79
2022/04/17 01:36:46;;;;;;;7.13;5.18;;;8.00;51.70;;;;;;4936077;29;20118;-79
2022/04/17 01:39:12;;;;;;;5.97;3.97;;;8.10;51.60;;;;;;4939253;29;20043;-79
2022/04/17 01:41:38;;;;;;;6.03;3.75;;;8.00;51.60;;;;;;4938174;29;20116;-78
2022/04/17 01:44:05;;;;;;;5.70;4.18;;;8.00;51.70;;;;;;4944424;29;20491;-79
2022/04/17 01:46:31;;;;;;;7.18;4.75;;;8.00;51.90;;;;;;4938200;29;20031;-79
2022/04/17 01:48:56;;;;;;;10.18;5.72;;;8.00;51.80;;;;;;4948273;29;20050;-79
2022/04/17 01:51:22;;;;;;;7.15;4.60;;;7.90;51.80;;;;;;4957290;29;20090;-79
2022/04/17 01:53:48;;;;;;;5.82;4.10;;;7.90;51.90;;;;;;4940424;29;20039;-80
2022/04/17 01:56:14;;;;;;;5.28;4.13;;;7.90;52.00;;;;;;4958308;29;20479;-79
2022/04/17 01:58:39;;;;;;;6.90;4.88;;;7.80;52.10;;;;;;4946331;29;20046;-79
2022/04/17 02:01:05;;;;;;;6.13;4.50;;;7.80;52.30;;;;;;4958631;29;20063;-79
2022/04/17 02:03:31;;;;;;;4.80;3.50;;;7.80;52.30;;;;;;4945914;29;20052;-79
2022/04/17 02:05:57;;;;;;;5.95;4.05;;;7.80;52.30;;;;;;4927249;29;20130;-79
2022/04/17 02:08:23;;;;;;;5.20;4.10;;;7.70;52.40;;;;;;4931836;29;20484;-79
2022/04/17 02:10:49;;;;;;;5.63;4.18;;;7.70;52.50;;;;;;4925355;29;20056;-79
2022/04/17 02:13:15;;;;;;;6.35;3.92;;;7.70;52.60;;;;;;4940244;29;20388;-78
2022/04/17 02:15:41;;;;;;;8.75;4.93;;;7.70;52.60;;;;;;4935938;29;20062;-79
2022/04/17 02:18:07;;;;;;;7.03;4.78;;;7.70;52.80;;;;;;4923039;29;20586;-79
2022/04/17 02:20:33;;;;;;;6.22;4.25;;;7.70;52.80;;;;;;4954101;29;20387;-79
2022/04/17 02:22:59;;;;;;;5.93;3.90;;;7.60;52.70;;;;;;4951248;29;20036;-79
2022/04/17 02:25:25;;;;;;;5.22;3.85;;;7.60;52.80;;;;;;4948104;29;20039;-78
2022/04/17 02:27:51;;;;;;;5.85;4.72;;;7.60;52.80;;;;;;4937342;29;20057;-79
2022/04/17 02:30:16;;;;;;;7.18;5.25;;;7.60;52.80;;;;;;4935446;29;20047;-79
2022/04/17 02:32:42;;;;;;;7.22;5.47;;;7.60;52.80;;;;;;4956683;29;20047;-79
2022/04/17 02:35:08;;;;;;;9.45;6.38;;;7.50;52.70;;;;;;4947918;29;20043;-78
2022/04/17 02:37:37;;;;;;;7.80;5.45;;;7.50;52.60;;;;;;4954225;29;20100;-79
2022/04/17 02:40:03;;;;;;;9.27;5.90;;;7.40;52.60;;;;;;4949479;29;20051;-79
2022/04/17 02:42:28;;;;;;;9.25;6.07;;;7.40;52.50;;;;;;4923119;29;20050;-79
2022/04/17 02:44:54;;;;;;;7.88;5.43;;;7.30;52.60;;;;;;4954960;29;20089;-79
2022/04/17 02:50:04;;;;;;;9.50;5.75;;;7.20;52.80;;;;;;4947086;29;20399;-79
2022/04/17 02:52:30;;;;;;;7.97;5.63;;;7.20;53.00;;;;;;4922550;29;20167;-79
2022/04/17 02:54:55;;;;;;;10.48;6.30;;;7.10;53.10;;;;;;4953184;29;20043;-79
2022/04/17 02:57:21;;;;;;;9.20;6.40;;;7.10;53.20;;;;;;4947650;29;20035;-79
2022/04/17 02:59:47;;;;;;;7.40;5.88;;;7.10;53.30;;;;;;4950961;28;20039;-79
2022/04/17 03:07:41;;;;;;;14.07;7.05;;;6.90;53.40;;;;;;4941633;29;20051;-79
2022/04/17 03:10:07;;;;;;;10.82;6.68;;;6.70;53.50;;;;;;4947659;29;20090;-79
2022/04/17 03:12:36;;;;;;;10.40;5.72;;;6.70;53.70;;;;;;4944045;29;20079;-79
2022/04/17 03:15:02;;;;;;;8.55;5.80;;;6.60;53.90;;;;;;4926463;29;20134;-79
2022/04/17 03:17:28;;;;;;;7.97;5.65;;;6.60;54.00;;;;;;4908548;29;20050;-79
2022/04/17 03:19:54;;;;;;;8.43;6.57;;;6.50;54.20;;;;;;4946695;29;20083;-79
2022/04/17 03:22:24;;;;;;;9.18;6.30;;;6.50;54.30;;;;;;4922352;29;20091;-79
2022/04/17 03:24:50;;;;;;;8.38;6.10;;;6.40;54.40;;;;;;4932059;29;20043;-78
2022/04/17 03:27:16;;;;;;;8.02;6.20;;;6.40;54.60;;;;;;4953719;29;20051;-79
2022/04/17 03:29:41;;;;;;;7.50;5.75;;;6.30;54.60;;;;;;4933352;29;20050;-79
2022/04/17 03:32:07;;;;;;;8.68;6.03;;;6.30;54.80;;;;;;4956607;29;20051;-78
2022/04/17 03:34:33;;;;;;;10.43;7.45;;;6.20;54.80;;;;;;4956362;29;20392;-79
2022/04/17 03:36:59;;;;;;;9.18;6.85;;;6.20;54.90;;;;;;4937890;29;20058;-79
2022/04/17 03:39:25;;;;;;;8.45;5.95;;;6.10;55.00;;;;;;4934199;29;20438;-79
2022/04/17 03:41:51;;;;;;;11.00;6.38;;;6.10;55.10;;;;;;4954696;29;20043;-79
2022/04/17 03:44:17;;;;;;;7.97;5.65;;;6.00;55.20;;;;;;4939466;29;20047;-79
2022/04/17 03:46:43;;;;;;;9.10;5.90;;;5.90;55.30;;;;;;4938199;29;20039;-79
2022/04/17 03:49:09;;;;;;;9.48;6.07;;;5.90;55.60;;;;;;4938447;29;20055;-79
2022/04/17 03:51:35;;;;;;;7.25;5.55;;;5.90;55.60;;;;;;4938100;29;20039;-79
2022/04/17 03:54:01;;;;;;;7.07;4.82;;;5.90;55.80;;;;;;4955389;29;20171;-79
2022/04/17 03:56:27;;;;;;;8.25;5.97;;;5.90;56.00;;;;;;4937705;29;20074;-79
2022/04/17 03:58:53;;;;;;;9.45;5.88;;;5.90;56.00;;;;;;4955227;29;20503;-79
2022/04/17 04:01:19;;;;;;;7.57;5.35;;;5.90;56.10;;;;;;4929287;29;20051;-79
2022/04/17 04:03:45;;;;;;;8.00;6.05;;;5.90;56.20;;;;;;4934487;29;20499;-79
2022/04/17 04:06:11;;;;;;;8.68;6.10;;;6.00;56.20;;;;;;4954264;29;20039;-79
2022/04/17 04:08:37;;;;;;;9.23;6.68;;;6.00;56.10;;;;;;4955382;29;20062;-79
2022/04/17 04:11:02;;;;;;;7.78;4.97;;;6.00;56.20;;;;;;4930596;29;20079;-79
2022/04/17 04:13:28;;;;;;;7.07;4.93;;;6.00;56.20;;;;;;4920327;29;20054;-79
2022/04/17 04:15:55;;;;;;;8.88;5.72;;;5.90;56.10;;;;;;4931334;29;20543;-79
2022/04/17 04:18:21;;;;;;;8.55;6.00;;;5.90;56.20;;;;;;4936975;29;20130;-79
2022/04/17 04:20:47;;;;;;;7.32;5.18;;;6.00;56.30;;;;;;4942463;29;20046;-79
2022/04/17 04:23:12;;;;;;;6.85;4.55;;;5.90;56.10;;;;;;4956399;29;20040;-80
2022/04/17 04:25:38;;;;;;;8.88;5.22;;;5.90;56.20;;;;;;4945779;29;20471;-79
2022/04/17 04:31:09;;;;;;;7.68;5.00;;;6.00;56.30;;;;;;4886037;29;20458;-79
2022/04/17 04:33:35;;;;;;;10.85;5.63;;;6.00;56.30;;;;;;4862912;29;20462;-79
2022/04/17 04:36:02;;;;;;;9.07;5.78;;;6.00;56.40;;;;;;4884736;29;20081;-79
2022/04/17 04:38:28;;;;;;;9.60;6.30;;;6.10;56.40;;;;;;4863049;29;20458;-79
2022/04/17 04:40:54;;;;;;;8.75;5.63;;;6.00;56.20;;;;;;4871071;29;20081;-79
2022/04/17 04:43:20;;;;;;;8.05;5.63;;;6.10;56.20;;;;;;4880016;29;20049;-79
2022/04/17 04:51:14;;;;;;;10.88;6.88;;;6.00;56.00;;;;;;4893982;29;20057;-79
2022/04/17 04:53:40;;;;;;;9.18;6.35;;;6.00;56.00;;;;;;4896285;29;20055;-79
2022/04/17 04:56:06;;;;;;;11.25;7.43;;;5.90;56.00;;;;;;4893950;29;20056;-78
2022/04/17 04:58:32;;;;;;;10.02;6.57;;;5.80;56.10;;;;;;4878070;29;20059;-79
2022/04/17 05:00:58;;;;;;;9.82;6.85;;;5.80;56.50;;;;;;4893922;29;20057;-79
2022/04/17 05:03:24;;;;;;;11.40;7.28;;;5.70;56.60;;;;;;4871483;29;20637;-79
2022/04/17 05:05:49;;;;;;;10.02;6.57;;;5.70;57.10;;;;;;4934284;29;20380;-78
2022/04/17 05:08:15;;;;;;;12.15;7.07;;;5.80;57.50;;;;;;4952251;29;20101;-79
2022/04/17 05:10:40;;;;;;;8.80;6.88;;;5.80;57.60;;;;;;4936560;29;20050;-79
2022/04/17 05:13:06;;;;;;;9.60;6.38;;;6.00;57.60;;;;;;4934197;29;20415;-79
2022/04/17 05:15:31;;;;;;;10.38;7.15;;;6.10;57.30;;;;;;4938459;29;20043;-79
2022/04/17 05:17:57;;;;;;;11.10;7.95;;;6.10;57.10;;;;;;4943586;29;20495;-78
2022/04/17 05:20:23;;;;;;;11.27;8.18;;;6.20;56.90;;;;;;4921917;29;20059;-78
2022/04/17 05:22:56;;;;;;;8.35;6.40;;;6.30;56.70;;;;;;4940002;29;20575;-79
2022/04/17 05:25:22;;;;;;;11.07;7.05;;;6.40;56.80;;;;;;4958642;29;20055;-80
2022/04/17 05:27:48;;;;;;;10.35;7.40;;;6.40;56.50;;;;;;4955920;29;20372;-79
2022/04/17 05:30:13;;;;;;;11.57;7.45;;;6.50;56.50;;;;;;4956864;29;20095;-79
2022/04/17 05:32:39;;;;;;;8.63;6.55;;;6.50;56.40;;;;;;4929120;29;20118;-79
2022/04/17 05:35:05;;;;;;;10.02;6.75;;;6.60;56.30;;;;;;4923012;29;20063;-79
2022/04/17 05:37:31;;;;;;;10.43;7.55;;;6.70;56.30;;;;;;4955388;29;20082;-79
2022/04/17 05:39:57;;;;;;;10.80;7.32;;;6.70;56.20;;;;;;4939633;29;20077;-78
2022/04/17 05:42:22;;;;;;;10.15;7.10;;;6.80;56.00;;;;;;4944682;29;20048;-79
2022/04/17 05:44:49;;;;;;;10.48;7.60;;;6.90;55.90;;;;;;4949640;29;20043;-80
2022/04/17 05:47:15;;;;;;;11.32;7.22;;;7.00;55.80;;;;;;4951888;29;20039;-79
2022/04/17 05:49:41;;;;;;;9.65;7.28;;;7.00;55.60;;;;;;4941781;29;20142;-80
2022/04/17 05:52:07;;;;;;;10.38;7.57;;;7.10;55.50;;;;;;4940623;29;20047;-80
2022/04/17 05:54:33;;;;;;;11.82;8.05;;;7.20;55.50;;;;;;4939872;29;20058;-80
2022/04/17 05:56:59;;;;;;;11.15;7.47;;;7.20;55.20;;;;;;4924321;29;20407;-79
2022/04/17 05:59:25;;;;;;;10.40;6.90;;;7.30;55.40;;;;;;4943151;29;20051;-80
2022/04/17 06:01:50;;;;;;;9.93;7.50;;;7.40;55.30;;;;;;4939393;29;20458;-79
2022/04/17 06:04:16;;;;;;;12.35;7.13;;;7.60;55.40;;;;;;4933035;29;20062;-79
2022/04/17 06:06:42;;;;;;;14.27;7.68;;;7.80;55.60;;;;;;4952339;29;20151;-79
2022/04/17 06:09:07;;;;;;;9.43;6.70;;;8.10;55.20;;;;;;4958761;29;20042;-80
2022/04/17 06:11:34;;;;;;;12.88;7.72;;;8.40;55.10;;;;;;4954956;29;20046;-79
2022/04/17 06:14:00;;;;;;;9.93;6.65;;;8.70;54.30;;;;;;4934334;29;20162;-79
2022/04/17 06:16:25;;;;;;;11.15;7.38;;;8.90;53.60;;;;;;4953238;29;20031;-79
2022/04/17 06:18:51;;;;;;;9.57;7.10;;;9.00;53.40;;;;;;4935121;29;20382;-80
2022/04/17 06:21:18;;;;;;;10.00;7.85;;;9.30;53.10;;;;;;4957787;29;20039;-80
2022/04/17 06:23:44;;;;;;;11.48;8.05;;;9.60;52.90;;;;;;4940394;29;20043;-79
2022/04/17 06:26:09;;;;;;;10.70;7.45;;;9.90;52.30;;;;;;4957128;29;20039;-84
2022/04/17 06:28:38;;;;;;;11.10;7.15;;;10.40;51.70;;;;;;4938082;29;20079;-80
2022/04/17 06:31:07;;;;;;;10.30;7.05;;;10.60;50.80;;;;;;4945893;29;20373;-80
2022/04/17 06:33:32;;;;;;;9.27;6.43;;;10.90;50.00;;;;;;4939627;29;20502;-80
2022/04/17 06:35:58;;;;;;;11.77;7.50;;;11.10;50.00;;;;;;4955181;29;20039;-80
2022/04/17 06:38:24;;;;;;;9.30;6.85;;;11.30;49.00;;;;;;4937558;29;20483;-80
2022/04/17 06:40:49;;;;;;;9.35;6.80;;;11.60;48.30;;;;;;4956335;29;20040;-80
2022/04/17 06:43:15;;;;;;;9.80;6.82;;;11.80;47.30;;;;;;4948905;29;20040;-79
2022/04/17 06:45:41;;;;;;;10.68;7.35;;;12.10;46.80;;;;;;4922892;29;20047;-80
2022/04/17 06:48:11;;;;;;;8.80;6.68;;;12.20;46.40;;;;;;4945963;29;20403;-80
2022/04/17 06:50:36;;;;;;;9.27;6.78;;;12.50;46.40;;;;;;4946027;29;20549;-79
2022/04/17 06:53:03;;;;;;;8.10;6.22;;;12.60;45.80;;;;;;4953766;29;20037;-80
2022/04/17 06:55:28;;;;;;;9.60;6.82;;;12.90;45.40;;;;;;4931735;29;20106;-80
2022/04/17 06:57:54;;;;;;;8.25;6.30;;;13.10;44.30;;;;;;4956968;29;20126;-80
2022/04/17 07:00:22;;;;;;;8.65;6.20;;;13.40;44.30;;;;;;4956101;29;20466;-80
2022/04/17 07:02:47;;;;;;;11.23;7.25;;;13.60;43.70;;;;;;4942379;29;20063;-80
2022/04/17 07:05:14;;;;;;;8.10;6.57;;;13.70;43.50;;;;;;4941581;29;20047;-80
2022/04/17 07:07:41;;;;;;;8.43;6.70;;;13.90;42.90;;;;;;4922598;29;20051;-80
2022/04/17 07:10:07;;;;;;;8.15;6.13;;;14.00;42.90;;;;;;4938811;29;20372;-80
2022/04/17 07:12:34;;;;;;;8.57;6.35;;;14.20;42.40;;;;;;4938235;29;20058;-77
2022/04/17 07:15:00;;;;;;;9.80;5.80;;;14.50;41.10;;;;;;4939122;29;20495;-80
2022/04/17 07:17:40;;;;;;;7.75;6.07;;;14.50;40.40;;;;;;4939315;29;20040;-80
2022/04/17 07:20:08;;;;;;;9.05;6.13;;;14.70;40.30;;;;;;4939077;29;20534;-80
2022/04/17 07:22:35;;;;;;;9.38;6.32;;;14.90;39.80;;;;;;4946341;29;20054;-80
2022/04/17 07:25:01;;;;;;;8.60;6.72;;;15.10;39.60;;;;;;4955327;29;20051;-80
2022/04/17 07:27:28;;;;;;;7.85;6.28;;;15.20;39.40;;;;;;4938734;29;20047;-80
2022/04/17 07:29:54;;;;;;;7.13;5.68;;;15.40;39.00;;;;;;4940505;29;20127;-80
2022/04/17 07:32:20;;;;;;;8.02;5.78;;;15.60;38.40;;;;;;4939169;29;20071;-80
2022/04/17 07:34:46;;;;;;;8.38;6.22;;;15.70;37.50;;;;;;4938901;29;20050;-80
2022/04/17 07:37:11;;;;;;;8.63;5.75;;;15.70;37.50;;;;;;4921028;29;20427;-79
2022/04/17 07:39:37;;;;;;;6.25;5.22;;;15.80;36.90;;;;;;4943838;29;20058;-79
2022/04/17 07:42:03;;;;;;;6.53;5.07;;;16.00;36.80;;;;;;4938785;29;20063;-80
2022/04/17 07:44:32;;;;;;;7.70;6.15;;;16.00;37.00;;;;;;4947775;29;20043;-79
2022/04/17 07:46:58;;;;;;;7.28;6.10;;;16.20;36.80;;;;;;4955488;28;20051;-80
2022/04/17 07:49:26;;;;;;;7.13;6.20;;;16.40;36.30;;;;;;4935395;29;20059;-79
2022/04/17 07:51:51;;;;;;;8.70;5.57;;;16.30;36.00;;;;;;4955358;29;20095;-80
2022/04/17 07:54:17;;;;;;;6.90;5.55;;;16.40;35.90;;;;;;4946371;29;20059;-80
2022/04/17 07:56:43;;;;;;;6.85;5.28;;;16.40;35.20;;;;;;4937605;29;20432;-80
2022/04/17 07:59:08;;;;;;;7.88;5.72;;;16.40;34.70;;;;;;4942925;29;20082;-80
2022/04/17 08:01:39;;;;;;;7.38;5.63;;;16.30;34.30;;;;;;4942832;29;20495;-79
2022/04/17 08:04:05;;;;;;;7.30;5.13;;;16.30;34.70;;;;;;4944755;29;20055;-79
2022/04/17 08:06:30;;;;;;;8.85;5.60;;;16.30;34.20;;;;;;4937529;29;20044;-79
2022/04/17 08:08:57;;;;;;;7.05;5.10;;;16.20;34.50;;;;;;4920716;29;20049;-79
2022/04/17 08:11:23;;;;;;;6.93;5.05;;;16.20;35.00;;;;;;4937427;29;20057;-79
2022/04/17 08:13:49;;;;;;;6.53;5.07;;;16.20;34.90;;;;;;4937532;29;20051;-80
2022/04/17 08:16:16;;;;;;;5.53;4.50;;;16.10;35.00;;;;;;4956113;29;20422;-78
2022/04/17 08:18:42;;;;;;;5.82;4.40;;;16.10;34.50;;;;;;4956472;29;20093;-79
2022/04/17 08:21:07;;;;;;;6.85;4.32;;;16.10;33.80;;;;;;4938433;29;20199;-85
2022/04/17 08:23:35;;;;;;;5.95;4.45;;;16.10;33.80;;;;;;4940651;29;20507;-86
2022/04/17 08:26:01;;;;;;;6.05;4.10;;;16.10;34.50;;;;;;4934648;29;20079;-86
2022/04/17 08:28:27;;;;;;;6.10;4.22;;;16.30;34.90;;;;;;4937333;29;20055;-87
2022/04/17 08:30:53;;;;;;;7.10;5.13;;;16.30;34.60;;;;;;4937274;29;20063;-89
2022/04/17 08:33:18;;;;;;;5.28;4.15;;;16.50;34.90;;;;;;4952051;29;20050;-85
2022/04/17 08:35:46;;;;;;;5.55;3.70;;;16.60;34.60;;;;;;4933251;29;20051;-85
2022/04/17 08:38:14;;;;;;;7.47;4.70;;;16.70;34.80;;;;;;4932802;29;20048;-86
2022/04/17 08:40:40;;;;;;;5.10;4.20;;;16.80;34.80;;;;;;4929156;29;20035;-84
2022/04/17 08:43:08;;;;;;;6.38;4.45;;;16.90;34.50;;;;;;4939999;29;20058;-84
2022/04/17 08:45:34;;;;;;;5.65;4.32;;;17.30;34.60;;;;;;4925341;29;20042;-85
2022/04/17 08:48:01;;;;;;;6.18;4.15;;;17.20;34.30;;;;;;4931926;29;20039;-83
2022/04/17 08:50:27;;;;;;;5.95;4.28;;;17.60;34.20;;;;;;4951812;29;20071;-84
2022/04/17 08:52:53;;;;;;;6.10;4.22;;;17.30;33.70;;;;;;4939737;29;20436;-84
2022/04/17 08:55:19;;;;;;;5.28;4.35;;;17.70;33.60;;;;;;4926649;29;20050;-84
2022/04/17 08:57:45;;;;;;;5.50;4.20;;;17.70;33.70;;;;;;4941005;29;20044;-85
2022/04/17 09:00:16;;;;;;;7.10;4.85;;;17.50;33.70;;;;;;4939709;29;20059;-84
2022/04/17 09:02:42;;;;;;;5.93;4.70;;;17.70;33.40;;;;;;4937334;29;20488;-84
2022/04/17 09:05:13;;;;;;;6.38;4.88;;;17.60;33.60;;;;;;4922081;29;20066;-84
2022/04/17 09:07:47;;;;;;;6.32;4.57;;;17.60;33.60;;;;;;4921965;29;20094;-86
2022/04/17 09:10:24;;;;;;;5.88;4.60;;;17.70;33.70;;;;;;4941055;29;20130;-86
2022/04/17 09:12:53;;;;;;;5.85;4.55;;;17.70;33.90;;;;;;4920399;29;20051;-87
2022/04/17 09:15:22;;;;;;;6.25;4.60;;;17.60;34.10;;;;;;4923909;29;20587;-85
2022/04/17 09:17:48;;;;;;;6.93;4.70;;;17.80;34.20;;;;;;4926338;29;20083;-85
2022/04/17 09:20:22;;;;;;;5.30;4.60;;;17.80;34.40;;;;;;4933229;29;20051;-84
2022/04/17 09:22:54;;;;;;;7.50;4.22;;;17.90;34.50;;;;;;4925137;29;20039;-84
2022/04/17 09:25:27;;;;;;;5.55;4.22;;;17.90;34.50;;;;;;4910158;29;20039;-84
2022/04/17 09:28:01;;;;;;;5.05;4.00;;;17.90;34.00;;;;;;4955381;29;20043;-81
2022/04/17 09:30:33;;;;;;;6.05;4.10;;;17.90;33.80;;;;;;4947729;29;20091;-82
2022/04/17 09:33:04;;;;;;;8.10;4.82;;;18.00;34.20;;;;;;4925021;29;20067;-83
2022/04/17 09:35:30;;;;;;;4.88;3.92;;;18.10;34.00;;;;;;4936220;29;20059;-84
2022/04/17 09:38:02;;;;;;;6.32;4.72;;;18.20;33.50;;;;;;4952616;29;20048;-83
2022/04/17 09:40:29;;;;;;;6.93;4.20;;;18.30;33.10;;;;;;4940766;29;20058;-84
2022/04/17 09:43:15;;;;;;;6.50;4.78;;;18.30;32.80;;;;;;4936172;29;20091;-84
2022/04/17 09:46:00;;;;;;;7.78;3.72;;;18.20;33.00;;;;;;4945133;29;20052;-83
2022/04/17 09:48:35;;;;;;;7.05;4.07;;;18.10;33.50;;;;;;4953701;29;20374;-82
2022/04/17 09:51:18;;;;;;;5.65;3.60;;;18.10;33.60;;;;;;4931615;29;20040;-83
2022/04/17 09:53:59;;;;;;;6.25;4.43;;;18.30;33.90;;;;;;4955137;29;20051;-83
2022/04/17 09:56:35;;;;;;;7.82;4.82;;;18.30;33.40;;;;;;4930920;29;20056;-85
2022/04/17 09:59:21;;;;;;;7.20;4.47;;;18.50;33.10;;;;;;4918168;29;20062;-84
2022/04/17 10:01:52;;;;;;;6.13;4.10;;;18.60;33.10;;;;;;4941854;29;20051;-84
2022/04/17 10:04:20;;;;;;;9.25;5.22;;;18.70;32.80;;;;;;4933369;29;20055;-84
2022/04/17 10:06:50;;;;;;;5.75;4.15;;;18.80;32.60;;;;;;4939574;29;20067;-83
2022/04/17 10:09:17;;;;;;;6.43;4.50;;;18.80;32.80;;;;;;4945014;28;20059;-84
2022/04/17 10:11:42;;;;;;;6.45;4.63;;;18.90;32.60;;;;;;4932541;29;20060;-83
2022/04/17 10:14:08;;;;;;;7.78;5.85;;;18.90;32.70;;;;;;4958520;29;20568;-85
2022/04/17 10:16:38;;;;;;;6.45;4.55;;;18.90;32.70;;;;;;4944879;29;20051;-84
2022/04/17 10:19:15;;;;;;;5.70;3.90;;;18.70;32.40;;;;;;4941246;29;20086;-84
2022/04/17 10:21:42;;;;;;;5.78;4.53;;;18.60;31.70;;;;;;4948013;29;20086;-88
2022/04/17 10:24:16;;;;;;;6.60;3.92;;;18.50;31.90;;;;;;4939476;29;20036;-85
2022/04/17 10:26:53;;;;;;;5.70;4.45;;;18.50;32.20;;;;;;4927859;29;20086;-84
2022/04/17 10:29:32;;;;;;;6.28;4.22;;;18.40;31.60;;;;;;4940271;29;20049;-85
2022/04/17 10:32:17;;;;;;;4.10;3.50;;;18.40;31.40;;;;;;4956037;29;20454;-85
2022/04/17 10:34:42;;;;;;;;;;;18.40;32.20;;;;;;4929772;29;20138;-86
2022/04/17 10:37:14;;;;;;;5.10;4.45;;;18.40;32.40;;;;;;4949040;29;20032;-84
2022/04/17 10:39:50;;;;;;;8.40;4.30;;;18.40;32.00;;;;;;4914652;29;20074;-85
2022/04/17 10:42:15;;;;;;;5.38;3.58;;;18.40;31.40;;;;;;4930901;29;20047;-84
2022/04/17 10:44:41;;;;;;;5.30;3.92;;;18.20;31.60;;;;;;4940044;29;20047;-86
2022/04/17 10:47:19;;;;;;;5.70;4.55;;;18.20;31.70;;;;;;4932990;29;20042;-92
2022/04/17 10:53:30;;;;;;;5.85;4.32;;;18.10;32.80;;;;;;4947416;29;20166;-88
2022/04/17 10:56:10;;;;;;;5.78;4.32;;;18.00;32.30;;;;;;4927753;29;20075;-92
2022/04/17 10:58:35;;;;;;;5.40;4.40;;;18.00;31.90;;;;;;4943249;29;20083;-92
2022/04/17 11:01:01;;;;;;;3.95;3.30;;;18.00;32.00;;;;;;4944809;29;20055;-94
2022/04/17 11:04:34;;;;;;;4.45;3.33;;;18.10;32.20;;;;;;4929289;29;20038;-93
2022/04/17 11:07:28;;;;;;;4.80;3.58;;;18.20;31.20;;;;;;4959465;29;20487;-93
2022/04/17 11:10:15;;;;;;;4.38;3.20;;;18.30;31.10;;;;;;4847939;29;20057;-94
2022/04/17 11:12:51;;;;;;;4.88;3.83;;;18.30;31.60;;;;;;4848785;29;20163;-94
2022/04/17 11:15:17;;;;;;;4.93;3.50;;;18.40;31.40;;;;;;4868105;29;20086;-94
2022/04/17 11:17:43;;;;;;;4.90;3.53;;;18.40;30.90;;;;;;4863866;29;20050;-93
2022/04/17 11:20:11;;;;;;;4.95;3.85;;;18.40;31.00;;;;;;4848366;29;20148;-95
2022/04/17 11:22:38;;;;;;;4.50;3.33;;;18.40;31.40;;;;;;4850543;29;20050;-95
2022/04/17 11:25:08;;;;;;;6.05;4.32;;;18.50;30.60;;;;;;4867049;29;20045;-93
2022/04/17 11:27:49;;;;;;;5.28;3.55;;;18.50;30.40;;;;;;4852567;29;20521;-95
2022/04/17 11:30:14;;;;;;;6.63;3.72;;;18.50;30.80;;;;;;4829491;29;20089;-93
2022/04/17 11:32:51;;;;;;;5.70;3.45;;;18.40;31.20;;;;;;4817087;29;20061;-94
2022/04/17 11:35:22;;;;;;;4.47;3.17;;;18.40;31.50;;;;;;4847175;29;20053;-92
2022/04/17 11:37:57;;;;;;;4.80;3.08;;;18.50;31.10;;;;;;4840909;29;20046;-96
2022/04/17 11:40:26;;;;;;;5.35;3.60;;;18.60;30.80;;;;;;4855085;29;20058;-92
2022/04/17 11:42:54;;;;;;;6.35;3.40;;;18.70;30.70;;;;;;4837238;29;20037;-92
2022/04/17 11:45:22;;;;;;;4.80;3.70;;;18.70;30.30;;;;;;4831041;29;20041;-92
2022/04/17 11:47:49;;;;;;;6.28;3.92;;;18.80;30.50;;;;;;4923459;29;20866;-93
2022/04/17 11:50:27;;;;;;;5.07;3.67;;;18.90;30.80;;;;;;4941318;29;20091;-89
2022/04/17 11:52:59;;;;;;;5.30;3.50;;;18.90;31.10;;;;;;4958594;29;20122;-92
2022/04/17 11:55:26;;;;;;;5.60;3.67;;;18.90;31.10;;;;;;4944100;29;20055;-93
2022/04/17 11:57:52;;;;;;;4.80;3.17;;;19.00;30.90;;;;;;4948066;28;20047;-91
2022/04/17 12:00:18;;;;;;;5.22;3.85;;;19.10;31.30;;;;;;4943006;29;20035;-92
2022/04/17 12:02:44;;;;;;;4.18;3.70;;;19.20;30.70;;;;;;4961428;29;20058;-93
2022/04/17 12:05:13;;;;;;;4.03;3.47;;;19.20;30.70;;;;;;4927434;29;20040;-94
2022/04/17 12:07:41;;;;;;;5.18;3.80;;;19.20;30.70;;;;;;4929464;29;20480;-94
2022/04/17 12:10:13;;;;;;;7.32;3.42;;;19.30;30.20;;;;;;4938298;29;20047;-92
2022/04/17 12:12:41;;;;;;;6.25;3.85;;;19.20;30.20;;;;;;4934864;29;20050;-89
2022/04/17 12:15:10;;;;;;;5.97;3.45;;;19.20;30.50;;;;;;4926391;29;20074;-93
2022/04/17 12:17:37;;;;;;;3.90;2.70;;;19.40;30.90;;;;;;4941343;29;20039;-93
2022/04/17 12:20:12;;;;;;;5.00;3.10;;;19.30;30.00;;;;;;4958989;29;20051;-93
2022/04/17 12:22:39;;;;;;;5.93;3.83;;;19.30;29.70;;;;;;4945228;29;20071;-93
2022/04/17 12:25:23;;;;;;;6.43;3.67;;;19.40;29.50;;;;;;4948545;29;20058;-90
2022/04/17 12:27:50;;;;;;;4.88;3.17;;;19.30;28.90;;;;;;4930169;29;20047;-87
2022/04/17 12:30:42;;;;;;;5.03;3.25;;;19.30;29.30;;;;;;4938727;29;20440;-92
2022/04/17 12:36:42;;;;;;;4.35;3.72;;;19.30;30.00;;;;;;4955878;29;20339;-90
2022/04/17 12:39:08;;;;;;;5.55;3.45;;;19.30;30.10;;;;;;4952594;29;20407;-93
2022/04/17 12:41:40;;;;;;;5.03;3.83;;;19.30;29.90;;;;;;4943516;29;20051;-94
2022/04/17 12:44:06;;;;;;;6.35;4.03;;;19.40;29.50;;;;;;4946235;29;20052;-91
2022/04/17 12:46:33;;;;;;;4.75;3.17;;;19.30;30.00;;;;;;4923474;29;20051;-90
2022/04/17 12:49:06;;;;;;;6.18;3.35;;;19.30;29.80;;;;;;4939943;29;20035;-88
2022/04/17 12:51:32;;;;;;;5.68;4.18;;;19.30;29.70;;;;;;4950302;29;20496;-93
2022/04/17 12:53:59;;;;;;;7.13;3.47;;;19.20;29.70;;;;;;4942618;29;20128;-88
2022/04/17 12:56:26;;;;;;;6.40;3.92;;;19.20;30.20;;;;;;4937400;29;20147;-91
2022/04/17 12:58:56;;;;;;;5.88;4.22;;;19.20;30.30;;;;;;4922023;29;20058;-90
2022/04/17 13:01:24;;;;;;;6.05;4.82;;;19.00;29.90;;;;;;4925516;29;20065;-86
2022/04/17 13:03:50;;;;;;;7.13;3.78;;;18.80;30.10;;;;;;4935037;29;20055;-86
2022/04/17 13:06:23;;;;;;;5.05;3.95;;;18.80;31.20;;;;;;4925282;29;20055;-87
2022/04/17 13:09:05;;;;;;;6.22;3.40;;;18.80;31.10;;;;;;4949210;29;20186;-86
2022/04/17 13:11:39;;;;;;;6.18;3.78;;;18.80;30.50;;;;;;4936695;29;20055;-89
2022/04/17 13:14:05;;;;;;;5.60;3.60;;;18.80;30.50;;;;;;4954500;29;20054;-87
2022/04/17 13:16:31;;;;;;;4.47;3.42;;;19.20;30.50;;;;;;4925968;29;20040;-88
2022/04/17 13:18:57;;;;;;;4.45;3.30;;;18.80;30.10;;;;;;4906589;29;20047;-90
2022/04/17 13:21:24;;;;;;;4.55;3.38;;;18.70;30.00;;;;;;4919482;29;20055;-88
2022/04/17 13:23:49;;;;;;;4.15;2.90;;;18.80;30.20;;;;;;4927783;29;20480;-87